createdAt,value
2022-12-03T00:00:38.001Z,20.5
2022-12-03T00:01:47.000Z,20.5
2022-12-03T00:02:57.239Z,20.5
2022-12-03T00:04:06.000Z,20.5
2022-12-03T00:05:15.000Z,20.5
2022-12-03T00:06:24.000Z,20.5
2022-12-03T00:07:33.000Z,20.5
2022-12-03T00:08:43.913Z,20.5
2022-12-03T00:09:54.028Z,20.5
2022-12-03T00:11:04.000Z,20.5
2022-12-03T00:12:14.000Z,20.5
2022-12-03T00:13:24.000Z,20.5
2022-12-03T00:14:34.000Z,20.5
2022-12-03T00:15:44.000Z,20.5
2022-12-03T00:16:54.000Z,20.5
2022-12-03T00:18:04.000Z,20.5
2022-12-03T00:19:14.969Z,20.5
2022-12-03T00:20:25.000Z,20.5
2022-12-03T00:21:35.202Z,20.5
2022-12-03T00:22:45.328Z,20.5
2022-12-03T00:23:54.467Z,20.4
2022-12-03T00:25:04.000Z,20.5
2022-12-03T00:26:14.000Z,20.5
2022-12-03T00:27:24.000Z,20.5
2022-12-03T00:28:34.000Z,20.5
2022-12-03T00:29:45.000Z,20.4
2022-12-03T00:30:54.192Z,20.4
2022-12-03T00:32:03.000Z,20.4
2022-12-03T00:33:12.463Z,20.4
2022-12-03T00:34:21.000Z,20.4
2022-12-03T00:35:31.720Z,20.4
2022-12-03T00:36:41.000Z,20.4
2022-12-03T00:37:51.961Z,20.4
2022-12-03T00:39:02.000Z,20.4
2022-12-03T00:40:12.000Z,20.4
2022-12-03T00:41:22.000Z,20.4
2022-12-03T00:42:32.000Z,20.4
2022-12-03T00:43:42.540Z,20.4
2022-12-03T00:44:52.000Z,20.4
2022-12-03T00:46:02.777Z,20.4
2022-12-03T00:47:12.888Z,20.4
2022-12-03T00:48:23.000Z,20.4
2022-12-03T00:49:32.139Z,20.4
2022-12-03T00:50:42.000Z,20.4
2022-12-03T00:51:52.000Z,20.4
2022-12-03T00:53:02.000Z,20.4
2022-12-03T00:54:12.617Z,20.4
2022-12-03T00:55:22.731Z,20.4
2022-12-03T00:56:32.000Z,20.4
2022-12-03T00:57:41.000Z,20.4
2022-12-03T00:58:52.121Z,20.4
2022-12-03T01:00:01.238Z,20.4
2022-12-03T01:01:10.000Z,20.4
2022-12-03T01:02:19.000Z,20.4
2022-12-03T01:03:29.000Z,20.4
2022-12-03T01:04:39.000Z,20.4
2022-12-03T01:05:49.873Z,20.3
2022-12-03T01:06:59.000Z,20.4
2022-12-03T01:08:10.000Z,20.3
2022-12-03T01:09:20.000Z,20.3
2022-12-03T01:10:30.000Z,20.3
2022-12-03T01:11:40.000Z,20.3
2022-12-03T01:12:50.000Z,20.3
2022-12-03T01:14:00.000Z,20.3
2022-12-03T01:15:10.000Z,20.3
2022-12-03T01:16:20.000Z,20.3
2022-12-03T01:17:30.062Z,20.3
2022-12-03T01:18:40.180Z,20.3
2022-12-03T01:19:50.000Z,20.3
2022-12-03T01:21:00.000Z,20.3
2022-12-03T01:22:10.000Z,20.3
2022-12-03T01:23:20.000Z,20.3
2022-12-03T01:24:30.000Z,20.3
2022-12-03T01:25:39.912Z,20.3
2022-12-03T01:26:49.000Z,20.3
2022-12-03T01:27:59.000Z,20.3
2022-12-03T01:29:09.000Z,20.3
2022-12-03T01:30:18.000Z,20.3
2022-12-03T01:31:27.000Z,20.3
2022-12-03T01:32:37.000Z,20.3
2022-12-03T01:33:47.000Z,20.3
2022-12-03T01:34:57.000Z,20.3
2022-12-03T01:36:08.032Z,20.3
2022-12-03T01:37:18.000Z,20.3
2022-12-03T01:38:28.000Z,20.3
2022-12-03T01:39:38.000Z,20.3
2022-12-03T01:40:48.000Z,20.3
2022-12-03T01:41:58.000Z,20.3
2022-12-03T01:43:08.742Z,20.3
2022-12-03T01:44:18.000Z,20.3
2022-12-03T01:45:28.980Z,20.3
2022-12-03T01:46:39.000Z,20.3
2022-12-03T01:47:48.000Z,20.2
2022-12-03T01:48:58.000Z,20.3
2022-12-03T01:50:08.000Z,20.3
2022-12-03T01:51:18.000Z,20.3
2022-12-03T01:52:28.000Z,20.2
2022-12-03T01:53:38.812Z,20.3
2022-12-03T01:54:47.000Z,20.3
2022-12-03T01:55:57.000Z,20.2
2022-12-03T01:57:06.231Z,20.2
2022-12-03T01:58:15.364Z,20.2
2022-12-03T01:59:25.000Z,20.2
2022-12-03T02:00:35.000Z,20.2
2022-12-03T02:01:45.000Z,20.2
2022-12-03T02:02:55.000Z,20.2
2022-12-03T02:04:05.953Z,20.2
2022-12-03T02:05:16.000Z,20.2
2022-12-03T02:06:26.000Z,20.2
2022-12-03T02:07:36.000Z,20.2
2022-12-03T02:08:46.000Z,20.2
2022-12-03T02:09:56.551Z,20.2
2022-12-03T02:11:06.660Z,20.2
2022-12-03T02:12:16.000Z,20.2
2022-12-03T02:13:25.000Z,20.2
2022-12-03T02:14:36.000Z,20.2
2022-12-03T02:15:46.162Z,20.2
2022-12-03T02:16:56.000Z,20.2
2022-12-03T02:18:06.000Z,20.2
2022-12-03T02:19:16.000Z,20.2
2022-12-03T02:20:26.000Z,20.2
2022-12-03T02:21:35.000Z,20.2
2022-12-03T02:22:44.000Z,20.2
2022-12-03T02:23:55.019Z,20.2
2022-12-03T02:26:14.000Z,20.2
2022-12-03T02:27:23.000Z,20.2
2022-12-03T02:28:32.000Z,20.2
2022-12-03T02:29:42.000Z,20.2
2022-12-03T02:30:52.000Z,20.2
2022-12-03T02:32:02.907Z,20.2
2022-12-03T02:33:13.022Z,20.2
2022-12-03T02:34:23.000Z,20.2
2022-12-03T02:35:33.261Z,20.2
2022-12-03T02:36:43.000Z,20.1
2022-12-03T02:37:53.000Z,20.2
2022-12-03T02:39:03.615Z,20.2
2022-12-03T02:40:13.000Z,20.1
2022-12-03T02:41:23.000Z,20.1
2022-12-03T02:42:33.000Z,20.1
2022-12-03T02:43:43.000Z,20.1
2022-12-03T02:44:53.000Z,20.1
2022-12-03T02:46:03.345Z,20.1
2022-12-03T02:47:13.000Z,20.1
2022-12-03T02:48:23.000Z,20.1
2022-12-03T02:49:32.000Z,20.1
2022-12-03T02:50:42.000Z,20.1
2022-12-03T02:51:51.000Z,20.1
2022-12-03T02:53:01.107Z,20.1
2022-12-03T02:54:11.223Z,20.1
2022-12-03T02:55:20.000Z,20.1
2022-12-03T02:56:29.501Z,20.1
2022-12-03T02:57:39.000Z,20.1
2022-12-03T02:58:49.000Z,20.1
2022-12-03T02:59:59.857Z,20.1
2022-12-03T03:01:09.000Z,20.1
2022-12-03T03:02:20.000Z,20.1
2022-12-03T03:03:30.000Z,20.1
2022-12-03T03:04:40.000Z,20.1
2022-12-03T03:05:50.000Z,20.1
2022-12-03T03:07:00.562Z,20.1
2022-12-03T03:08:10.000Z,20.1
2022-12-03T03:09:20.000Z,20.1
2022-12-03T03:10:30.000Z,20.1
2022-12-03T03:11:40.000Z,20.1
2022-12-03T03:12:50.000Z,20.1
2022-12-03T03:14:00.282Z,20.1
2022-12-03T03:15:10.000Z,20.1
2022-12-03T03:16:20.518Z,20
2022-12-03T03:17:30.000Z,20.1
2022-12-03T03:18:40.000Z,20
2022-12-03T03:19:50.000Z,20
2022-12-03T03:21:00.029Z,20
2022-12-03T03:22:09.000Z,20
2022-12-03T03:23:18.000Z,20
2022-12-03T03:24:27.000Z,20
2022-12-03T03:25:37.000Z,20
2022-12-03T03:26:47.661Z,20
2022-12-03T03:27:57.779Z,20
2022-12-03T03:29:07.000Z,20
2022-12-03T03:30:18.000Z,20
2022-12-03T03:31:28.131Z,20
2022-12-03T03:32:38.000Z,20
2022-12-03T03:33:48.000Z,20
2022-12-03T03:34:58.000Z,20
2022-12-03T03:36:08.000Z,20
2022-12-03T03:37:18.000Z,20
2022-12-03T03:38:28.844Z,20
2022-12-03T03:39:37.000Z,20
2022-12-03T03:40:48.000Z,20
2022-12-03T03:41:58.210Z,20
2022-12-03T03:43:08.000Z,20
2022-12-03T03:44:18.000Z,20
2022-12-03T03:45:28.000Z,20
2022-12-03T03:46:38.684Z,20
2022-12-03T03:47:47.000Z,20
2022-12-03T03:48:56.000Z,20
2022-12-03T03:50:07.000Z,20
2022-12-03T03:51:17.000Z,20
2022-12-03T03:52:27.000Z,20
2022-12-03T03:53:37.000Z,20
2022-12-03T03:54:47.548Z,20
2022-12-03T03:55:57.000Z,20
2022-12-03T03:57:07.000Z,20
2022-12-03T03:58:17.000Z,20
2022-12-03T03:59:28.000Z,20
2022-12-03T04:00:38.134Z,20
2022-12-03T04:01:48.000Z,20
2022-12-03T04:02:58.378Z,20
2022-12-03T04:04:07.000Z,20
2022-12-03T04:05:17.000Z,19.9
2022-12-03T04:06:27.000Z,20
2022-12-03T04:07:37.000Z,19.9
2022-12-03T04:08:47.000Z,19.9
2022-12-03T04:09:58.000Z,19.9
2022-12-03T04:11:08.000Z,19.9
2022-12-03T04:12:17.354Z,19.9
2022-12-03T04:13:26.000Z,19.9
2022-12-03T04:14:35.641Z,19.9
2022-12-03T04:15:44.000Z,19.9
2022-12-03T04:16:53.911Z,19.9
2022-12-03T04:18:03.000Z,19.9
2022-12-03T04:19:13.000Z,19.9
2022-12-03T04:20:23.000Z,19.9
2022-12-03T04:21:33.000Z,19.9
2022-12-03T04:22:43.000Z,19.9
2022-12-03T04:23:53.637Z,19.9
2022-12-03T04:25:03.000Z,19.9
2022-12-03T04:26:13.875Z,19.9
2022-12-03T04:27:23.000Z,19.9
2022-12-03T04:28:34.000Z,19.9
2022-12-03T04:29:44.223Z,19.9
2022-12-03T04:30:54.000Z,19.9
2022-12-03T04:32:04.000Z,19.9
2022-12-03T04:33:13.000Z,19.9
2022-12-03T04:34:23.000Z,19.9
2022-12-03T04:35:33.837Z,19.9
2022-12-03T04:36:43.000Z,19.9
2022-12-03T04:37:54.066Z,19.9
2022-12-03T04:39:04.000Z,19.9
2022-12-03T04:40:14.297Z,19.9
2022-12-03T04:41:23.000Z,19.9
2022-12-03T04:42:32.000Z,19.9
2022-12-03T04:43:42.000Z,19.9
2022-12-03T04:44:51.839Z,19.9
2022-12-03T04:46:00.000Z,19.9
2022-12-03T04:47:11.000Z,19.8
2022-12-03T04:48:21.000Z,19.8
2022-12-03T04:49:31.000Z,19.9
2022-12-03T04:50:41.447Z,19.8
2022-12-03T04:51:51.562Z,19.8
2022-12-03T04:53:01.693Z,19.8
2022-12-03T04:54:11.795Z,19.8
2022-12-03T04:55:21.000Z,19.8
2022-12-03T04:57:42.000Z,19.8
2022-12-03T04:58:52.263Z,19.8
2022-12-03T05:00:02.392Z,19.8
2022-12-03T05:01:12.000Z,19.8
2022-12-03T05:02:21.633Z,19.8
2022-12-03T05:03:31.000Z,19.8
2022-12-03T05:04:41.000Z,19.8
2022-12-03T05:05:51.000Z,19.8
2022-12-03T05:07:02.000Z,19.8
2022-12-03T05:08:12.000Z,19.8
2022-12-03T05:09:22.000Z,19.8
2022-12-03T05:10:31.000Z,19.8
2022-12-03T05:11:40.627Z,19.8
2022-12-03T05:12:49.000Z,19.8
2022-12-03T05:13:58.000Z,19.8
2022-12-03T05:15:09.000Z,19.8
2022-12-03T05:16:19.000Z,19.8
2022-12-03T05:17:29.258Z,19.8
2022-12-03T05:18:39.000Z,19.8
2022-12-03T05:19:49.000Z,19.8
2022-12-03T05:20:59.000Z,19.8
2022-12-03T05:22:09.000Z,19.8
2022-12-03T05:23:19.843Z,19.8
2022-12-03T05:24:29.000Z,19.8
2022-12-03T05:25:40.074Z,19.8
2022-12-03T05:26:50.000Z,19.8
2022-12-03T05:28:00.322Z,19.8
2022-12-03T05:29:09.442Z,19.8
2022-12-03T05:30:19.000Z,19.8
2022-12-03T05:31:29.000Z,19.8
2022-12-03T05:32:39.000Z,19.8
2022-12-03T05:33:49.000Z,19.8
2022-12-03T05:35:00.044Z,19.8
2022-12-03T05:36:10.000Z,19.8
2022-12-03T05:37:19.000Z,19.8
2022-12-03T05:38:28.438Z,19.8
2022-12-03T05:39:38.000Z,19.8
2022-12-03T05:40:47.688Z,19.8
2022-12-03T05:41:57.000Z,19.8
2022-12-03T05:43:06.000Z,19.8
2022-12-03T05:44:17.000Z,19.8
2022-12-03T05:45:27.000Z,19.8
2022-12-03T05:46:37.000Z,19.7
2022-12-03T05:47:47.000Z,19.7
2022-12-03T05:48:57.000Z,19.7
2022-12-03T05:50:07.000Z,19.7
2022-12-03T05:51:17.000Z,19.7
2022-12-03T05:52:27.000Z,19.7
2022-12-03T05:53:38.000Z,19.7
2022-12-03T05:54:48.000Z,19.7
2022-12-03T05:55:58.000Z,19.7
2022-12-03T05:57:08.000Z,19.7
2022-12-03T05:58:17.487Z,19.7
2022-12-03T05:59:27.608Z,19.7
2022-12-03T06:00:37.000Z,19.7
2022-12-03T06:01:47.843Z,19.7
2022-12-03T06:02:57.956Z,19.7
2022-12-03T06:04:08.000Z,19.7
2022-12-03T06:05:17.000Z,19.7
2022-12-03T06:06:26.000Z,19.7
2022-12-03T06:07:36.000Z,19.7
2022-12-03T06:08:46.000Z,19.7
2022-12-03T06:09:55.731Z,19.7
2022-12-03T06:11:04.000Z,19.7
2022-12-03T06:12:14.000Z,19.7
2022-12-03T06:13:25.112Z,19.7
2022-12-03T06:14:35.230Z,19.7
2022-12-03T06:15:45.340Z,19.7
2022-12-03T06:16:55.000Z,19.7
2022-12-03T06:18:05.000Z,19.7
2022-12-03T06:19:15.000Z,19.7
2022-12-03T06:20:25.000Z,19.7
2022-12-03T06:21:35.922Z,19.7
2022-12-03T06:22:46.000Z,19.6
2022-12-03T06:23:56.000Z,19.7
2022-12-03T06:25:06.000Z,19.7
2022-12-03T06:26:15.414Z,19.7
2022-12-03T06:27:25.000Z,19.7
2022-12-03T06:28:35.000Z,19.6
2022-12-03T06:29:45.000Z,19.7
2022-12-03T06:30:55.000Z,19.6
2022-12-03T06:32:06.000Z,19.6
2022-12-03T06:33:16.000Z,19.6
2022-12-03T06:34:26.000Z,19.6
2022-12-03T06:35:35.384Z,19.6
2022-12-03T06:36:45.000Z,19.6
2022-12-03T06:37:54.000Z,19.6
2022-12-03T06:39:03.000Z,19.6
2022-12-03T06:40:13.000Z,19.6
2022-12-03T06:41:24.000Z,19.6
2022-12-03T06:42:34.000Z,19.6
2022-12-03T06:43:43.263Z,19.6
2022-12-03T06:44:53.000Z,19.6
2022-12-03T06:46:03.000Z,19.6
2022-12-03T06:47:13.625Z,19.6
2022-12-03T06:48:23.733Z,19.6
2022-12-03T06:49:33.000Z,19.6
2022-12-03T06:50:43.000Z,19.6
2022-12-03T06:51:54.000Z,19.6
2022-12-03T06:53:04.000Z,19.6
2022-12-03T06:54:14.000Z,19.6
2022-12-03T06:55:24.000Z,19.6
2022-12-03T06:56:34.000Z,19.6
2022-12-03T06:57:44.000Z,19.6
2022-12-03T06:58:53.000Z,19.6
2022-12-03T07:00:03.000Z,19.6
2022-12-03T07:01:14.000Z,19.6
2022-12-03T07:02:23.196Z,19.6
2022-12-03T07:03:32.000Z,19.6
2022-12-03T07:04:41.000Z,19.6
2022-12-03T07:05:50.000Z,19.6
2022-12-03T07:07:00.000Z,19.6
2022-12-03T07:08:10.000Z,19.6
2022-12-03T07:09:20.000Z,19.6
2022-12-03T07:10:31.000Z,19.6
2022-12-03T07:11:41.190Z,19.6
2022-12-03T07:12:51.313Z,19.6
2022-12-03T07:14:01.000Z,19.6
2022-12-03T07:15:11.000Z,19.6
2022-12-03T07:16:21.669Z,19.6
2022-12-03T07:17:31.000Z,19.6
2022-12-03T07:18:41.000Z,19.6
2022-12-03T07:19:52.021Z,19.6
2022-12-03T07:21:01.000Z,19.6
2022-12-03T07:22:11.000Z,19.5
2022-12-03T07:23:21.389Z,19.5
2022-12-03T07:24:31.000Z,19.5
2022-12-03T07:25:41.617Z,19.5
2022-12-03T07:26:51.000Z,19.5
2022-12-03T07:28:01.863Z,19.5
2022-12-03T07:29:11.000Z,19.5
2022-12-03T07:30:20.000Z,19.5
2022-12-03T07:31:30.000Z,19.5
2022-12-03T07:32:40.000Z,19.5
2022-12-03T07:33:49.000Z,19.5
2022-12-03T07:34:58.000Z,19.5
2022-12-03T07:36:08.000Z,19.5
2022-12-03T07:37:18.000Z,19.5
2022-12-03T07:38:29.000Z,19.5
2022-12-03T07:39:39.130Z,19.5
2022-12-03T07:40:49.000Z,19.5
2022-12-03T07:41:59.000Z,19.5
2022-12-03T07:43:09.000Z,19.5
2022-12-03T07:44:19.000Z,19.5
2022-12-03T07:45:29.000Z,19.5
2022-12-03T07:46:39.000Z,19.5
2022-12-03T07:47:49.000Z,19.5
2022-12-03T07:49:00.000Z,19.5
2022-12-03T07:50:09.000Z,19.5
2022-12-03T07:51:19.000Z,19.5
2022-12-03T07:52:29.000Z,19.5
2022-12-03T07:53:39.000Z,19.5
2022-12-03T07:54:49.000Z,19.5
2022-12-03T07:55:59.787Z,19.5
2022-12-03T07:57:09.000Z,19.5
2022-12-03T07:58:19.042Z,19.5
2022-12-03T07:59:28.176Z,19.5
2022-12-03T08:00:37.000Z,19.5
2022-12-03T08:01:46.000Z,19.5
2022-12-03T08:02:56.000Z,19.5
2022-12-03T08:04:06.000Z,19.5
2022-12-03T08:06:26.926Z,19.5
2022-12-03T08:07:37.000Z,19.5
2022-12-03T08:08:47.000Z,19.5
2022-12-03T08:09:57.000Z,19.5
2022-12-03T08:11:07.000Z,19.5
2022-12-03T08:12:17.522Z,19.5
2022-12-03T08:13:27.000Z,19.4
2022-12-03T08:14:37.000Z,19.4
2022-12-03T08:15:47.000Z,19.4
2022-12-03T08:16:57.000Z,19.4
2022-12-03T08:18:07.000Z,19.5
2022-12-03T08:19:17.000Z,19.4
2022-12-03T08:20:27.374Z,19.4
2022-12-03T08:21:37.478Z,19.4
2022-12-03T08:22:47.601Z,19.4
2022-12-03T08:23:57.709Z,19.4
2022-12-03T08:25:07.000Z,19.4
2022-12-03T08:26:16.000Z,19.4
2022-12-03T08:27:26.000Z,19.4
2022-12-03T08:28:36.000Z,19.4
2022-12-03T08:29:45.000Z,19.4
2022-12-03T08:30:54.000Z,19.4
2022-12-03T08:32:04.619Z,19.4
2022-12-03T08:33:14.000Z,19.4
2022-12-03T08:34:24.864Z,19.4
2022-12-03T08:35:34.982Z,19.4
2022-12-03T08:36:45.000Z,19.4
2022-12-03T08:37:55.000Z,19.4
2022-12-03T08:39:05.000Z,19.4
2022-12-03T08:40:15.000Z,19.4
2022-12-03T08:41:25.575Z,19.4
2022-12-03T08:42:35.000Z,19.4
2022-12-03T08:43:45.000Z,19.4
2022-12-03T08:44:55.000Z,19.4
2022-12-03T08:46:05.000Z,19.4
2022-12-03T08:47:15.000Z,19.4
2022-12-03T08:48:25.000Z,19.4
2022-12-03T08:49:35.416Z,19.4
2022-12-03T08:50:45.000Z,19.4
2022-12-03T08:51:55.000Z,19.4
2022-12-03T08:53:05.754Z,19.4
2022-12-03T08:54:14.000Z,19.4
2022-12-03T08:55:24.037Z,19.4
2022-12-03T08:56:34.165Z,19.3
2022-12-03T08:57:44.000Z,19.4
2022-12-03T08:58:54.000Z,19.4
2022-12-03T09:00:04.000Z,19.4
2022-12-03T09:01:14.000Z,19.3
2022-12-03T09:02:24.000Z,19.4
2022-12-03T09:03:34.000Z,19.4
2022-12-03T09:04:44.981Z,19.3
2022-12-03T09:05:55.102Z,19.3
2022-12-03T09:07:05.000Z,19.3
2022-12-03T09:08:15.332Z,19.4
2022-12-03T09:09:25.000Z,19.4
2022-12-03T09:10:34.580Z,19.3
2022-12-03T09:11:44.000Z,19.3
2022-12-03T09:12:54.000Z,19.3
2022-12-03T09:14:04.000Z,19.3
2022-12-03T09:15:15.000Z,19.3
2022-12-03T09:16:25.000Z,19.3
2022-12-03T09:17:35.284Z,19.3
2022-12-03T09:18:45.000Z,19.3
2022-12-03T09:19:54.545Z,19.3
2022-12-03T09:21:03.680Z,19.3
2022-12-03T09:22:12.000Z,19.3
2022-12-03T09:23:21.000Z,19.3
2022-12-03T09:24:31.000Z,19.3
2022-12-03T09:25:40.000Z,19.3
2022-12-03T09:26:50.000Z,19.3
2022-12-03T09:28:00.000Z,19.3
2022-12-03T09:29:10.587Z,19.3
2022-12-03T09:30:20.000Z,19.3
2022-12-03T09:31:30.000Z,19.3
2022-12-03T09:32:40.000Z,19.3
2022-12-03T09:33:51.068Z,19.3
2022-12-03T09:35:01.000Z,19.3
2022-12-03T09:36:11.000Z,19.3
2022-12-03T09:37:21.000Z,19.3
2022-12-03T09:38:31.000Z,19.3
2022-12-03T09:39:41.000Z,19.3
2022-12-03T09:40:50.000Z,19.3
2022-12-03T09:42:00.900Z,19.3
2022-12-03T09:43:11.000Z,19.3
2022-12-03T09:44:21.000Z,19.3
2022-12-03T09:45:31.254Z,19.3
2022-12-03T09:46:41.381Z,19.3
2022-12-03T09:47:51.000Z,19.3
2022-12-03T09:49:00.000Z,19.3
2022-12-03T09:50:09.000Z,19.3
2022-12-03T09:51:19.000Z,19.3
2022-12-03T09:52:29.000Z,19.3
2022-12-03T09:53:38.163Z,19.3
2022-12-03T09:54:48.000Z,19.3
2022-12-03T09:55:58.000Z,19.3
2022-12-03T09:57:08.000Z,19.3
2022-12-03T09:58:18.000Z,19.3
2022-12-03T09:59:28.754Z,19.3
2022-12-03T10:00:38.000Z,19.3
2022-12-03T10:01:48.000Z,19.3
2022-12-03T10:02:59.000Z,19.3
2022-12-03T10:04:09.000Z,19.3
2022-12-03T10:05:19.000Z,19.2
2022-12-03T10:06:29.000Z,19.2
2022-12-03T10:07:39.591Z,19.2
2022-12-03T10:08:48.000Z,19.2
2022-12-03T10:09:58.000Z,19.2
2022-12-03T10:11:08.949Z,19.2
2022-12-03T10:12:19.000Z,19.2
2022-12-03T10:13:29.179Z,19.2
2022-12-03T10:14:39.000Z,19.2
2022-12-03T10:15:49.000Z,19.2
2022-12-03T10:16:58.561Z,19.2
2022-12-03T10:18:07.000Z,19.2
2022-12-03T10:19:17.000Z,19.2
2022-12-03T10:20:26.970Z,19.2
2022-12-03T10:21:36.000Z,19.2
2022-12-03T10:22:46.000Z,19.2
2022-12-03T10:23:56.000Z,19.2
2022-12-03T10:25:06.444Z,19.2
2022-12-03T10:26:16.000Z,19.2
2022-12-03T10:27:26.000Z,19.2
2022-12-03T10:28:36.796Z,19.2
2022-12-03T10:29:46.918Z,19.2
2022-12-03T10:30:57.000Z,19.2
2022-12-03T10:32:07.000Z,19.2
2022-12-03T10:33:17.000Z,19.2
2022-12-03T10:34:27.000Z,19.2
2022-12-03T10:35:37.000Z,19.2
2022-12-03T10:36:46.000Z,19.2
2022-12-03T10:37:55.000Z,19.2
2022-12-03T10:39:05.893Z,19.2
2022-12-03T10:40:16.000Z,19.2
2022-12-03T10:41:26.000Z,19.2
2022-12-03T10:42:36.000Z,19.2
2022-12-03T10:43:46.000Z,19.2
2022-12-03T10:44:55.000Z,19.2
2022-12-03T10:46:04.000Z,19.2
2022-12-03T10:47:14.000Z,19.2
2022-12-03T10:48:24.000Z,19.2
2022-12-03T10:49:34.028Z,19.2
2022-12-03T10:50:43.000Z,19.2
2022-12-03T10:51:53.281Z,19.2
2022-12-03T10:53:03.000Z,19.2
2022-12-03T10:54:13.000Z,19.2
2022-12-03T10:55:23.000Z,19.2
2022-12-03T10:56:33.000Z,19.2
2022-12-03T10:57:43.000Z,19.2
2022-12-03T10:58:53.000Z,19.2
2022-12-03T11:00:04.070Z,19.2
2022-12-03T11:01:14.190Z,19.2
2022-12-03T11:02:24.000Z,19.2
2022-12-03T11:03:34.429Z,19.2
2022-12-03T11:04:44.000Z,19.2
2022-12-03T11:05:53.672Z,19.2
2022-12-03T11:07:03.000Z,19.2
2022-12-03T11:08:13.000Z,19.1
2022-12-03T11:09:24.028Z,19.1
2022-12-03T11:10:34.000Z,19.1
2022-12-03T11:11:44.000Z,19.1
2022-12-03T11:12:54.000Z,19.1
2022-12-03T11:14:03.000Z,19.1
2022-12-03T11:15:12.000Z,19.1
2022-12-03T11:16:21.000Z,19.1
2022-12-03T11:17:30.944Z,19.1
2022-12-03T11:18:41.058Z,19.1
2022-12-03T11:19:51.000Z,19.1
2022-12-03T11:21:01.000Z,19.1
2022-12-03T11:22:11.000Z,19.1
2022-12-03T11:23:21.000Z,19.1
2022-12-03T11:24:31.000Z,19.1
2022-12-03T11:25:41.000Z,19.1
2022-12-03T11:26:51.878Z,19.1
2022-12-03T11:28:02.000Z,19.1
2022-12-03T11:29:12.000Z,19.1
2022-12-03T11:30:22.000Z,19.1
2022-12-03T11:31:32.000Z,19.1
2022-12-03T11:32:41.000Z,19.1
2022-12-03T11:33:51.000Z,19.1
2022-12-03T11:35:01.719Z,19.1
2022-12-03T11:36:11.000Z,19.1
2022-12-03T11:37:21.000Z,19.1
2022-12-03T11:38:32.000Z,19.1
2022-12-03T11:39:42.000Z,19.1
2022-12-03T11:40:51.000Z,19.1
2022-12-03T11:42:00.000Z,19.1
2022-12-03T11:43:10.000Z,19.1
2022-12-03T11:44:19.744Z,19.1
2022-12-03T11:45:28.000Z,19.1
2022-12-03T11:46:39.000Z,19.1
2022-12-03T11:47:49.102Z,19.1
2022-12-03T11:48:59.225Z,19.1
2022-12-03T11:50:09.000Z,19.1
2022-12-03T11:51:19.000Z,19.1
2022-12-03T11:52:29.578Z,19.1
2022-12-03T11:53:39.000Z,19.1
2022-12-03T11:54:49.000Z,19.1
2022-12-03T11:55:59.931Z,19.1
2022-12-03T11:57:10.000Z,19.1
2022-12-03T11:58:20.168Z,19.1
2022-12-03T11:59:30.000Z,19.1
2022-12-03T12:00:39.000Z,19.1
2022-12-03T12:01:49.000Z,19.1
2022-12-03T12:02:59.650Z,19.1
2022-12-03T12:04:09.000Z,19
2022-12-03T12:05:19.000Z,19
2022-12-03T12:06:30.000Z,19.1
2022-12-03T12:07:40.000Z,19.1
2022-12-03T12:08:49.000Z,19.1
2022-12-03T12:09:58.000Z,19.1
2022-12-03T12:11:08.000Z,19.1
2022-12-03T12:12:17.000Z,19
2022-12-03T12:13:26.000Z,19
2022-12-03T12:14:36.000Z,19.1
2022-12-03T12:15:47.000Z,19.1
2022-12-03T12:16:57.000Z,19
2022-12-03T12:18:07.000Z,19
2022-12-03T12:19:17.000Z,19
2022-12-03T12:20:27.000Z,19
2022-12-03T12:21:37.622Z,19
2022-12-03T12:22:47.000Z,19
2022-12-03T12:23:57.000Z,19
2022-12-03T12:25:08.000Z,19
2022-12-03T12:26:18.000Z,19
2022-12-03T12:27:28.000Z,19
2022-12-03T12:28:37.000Z,19
2022-12-03T12:29:47.000Z,19
2022-12-03T12:30:57.000Z,19
2022-12-03T12:32:07.000Z,19
2022-12-03T12:33:17.000Z,19
2022-12-03T12:34:27.000Z,19
2022-12-03T12:35:38.000Z,19
2022-12-03T12:36:47.191Z,19
2022-12-03T12:37:57.000Z,19
2022-12-03T12:39:06.452Z,19
2022-12-03T12:40:15.593Z,19
2022-12-03T12:41:24.000Z,19
2022-12-03T12:42:34.848Z,19
2022-12-03T12:43:44.000Z,19
2022-12-03T12:44:55.000Z,19
2022-12-03T12:46:05.000Z,19
2022-12-03T12:47:15.309Z,19
2022-12-03T12:48:25.431Z,19
2022-12-03T12:49:35.000Z,19
2022-12-03T12:50:45.663Z,19
2022-12-03T12:51:55.795Z,19
2022-12-03T12:53:05.000Z,19
2022-12-03T12:54:16.000Z,19
2022-12-03T12:55:26.000Z,19
2022-12-03T12:56:35.271Z,19
2022-12-03T12:57:45.000Z,19
2022-12-03T12:58:55.514Z,19
2022-12-03T13:00:05.628Z,19
2022-12-03T13:01:15.738Z,18.9
2022-12-03T13:02:25.000Z,19
2022-12-03T13:03:36.000Z,18.9
2022-12-03T13:04:45.000Z,18.9
2022-12-03T13:05:54.000Z,18.9
2022-12-03T13:07:04.000Z,19
2022-12-03T13:08:14.529Z,18.9
2022-12-03T13:09:23.664Z,18.9
2022-12-03T13:10:32.799Z,18.9
2022-12-03T13:11:42.000Z,18.9
2022-12-03T13:12:53.000Z,18.9
2022-12-03T13:14:03.000Z,18.9
2022-12-03T13:15:13.000Z,18.9
2022-12-03T13:16:23.000Z,18.9
2022-12-03T13:17:33.000Z,18.9
2022-12-03T13:18:43.000Z,18.9
2022-12-03T13:19:53.745Z,18.9
2022-12-03T13:21:03.860Z,18.9
2022-12-03T13:22:13.000Z,18.9
2022-12-03T13:23:24.091Z,18.9
2022-12-03T13:24:34.000Z,18.9
2022-12-03T13:25:43.000Z,18.9
2022-12-03T13:26:53.468Z,18.9
2022-12-03T13:28:03.000Z,18.9
2022-12-03T13:29:13.000Z,18.9
2022-12-03T13:30:23.000Z,18.9
2022-12-03T13:31:33.937Z,18.9
2022-12-03T13:32:44.047Z,18.9
2022-12-03T13:33:53.196Z,18.9
2022-12-03T13:35:02.000Z,18.9
2022-12-03T13:36:11.470Z,18.9
2022-12-03T13:37:20.612Z,18.9
2022-12-03T13:38:30.000Z,18.9
2022-12-03T13:39:40.000Z,18.9
2022-12-03T13:40:50.000Z,18.9
2022-12-03T13:42:01.000Z,18.9
2022-12-03T13:43:11.000Z,18.9
2022-12-03T13:44:21.314Z,18.9
2022-12-03T13:45:31.000Z,18.9
2022-12-03T13:46:41.565Z,18.9
2022-12-03T13:47:51.000Z,18.9
2022-12-03T13:49:01.000Z,18.9
2022-12-03T13:50:11.907Z,18.9
2022-12-03T13:51:22.000Z,18.9
2022-12-03T13:52:31.000Z,18.9
2022-12-03T13:53:41.000Z,18.9
2022-12-03T13:54:51.383Z,18.9
2022-12-03T13:56:01.500Z,18.9
2022-12-03T13:57:11.617Z,18.9
2022-12-03T13:58:21.740Z,18.9
2022-12-03T13:59:31.000Z,18.9
2022-12-03T14:00:41.000Z,18.9
2022-12-03T14:01:50.000Z,18.9
2022-12-03T14:03:00.000Z,18.9
2022-12-03T14:04:09.396Z,18.9
2022-12-03T14:05:18.531Z,18.9
2022-12-03T14:06:28.000Z,18.8
2022-12-03T14:07:38.000Z,18.8
2022-12-03T14:08:48.000Z,18.8
2022-12-03T14:09:59.000Z,18.8
2022-12-03T14:11:09.125Z,18.8
2022-12-03T14:12:19.000Z,18.8
2022-12-03T14:13:29.000Z,18.8
2022-12-03T14:14:39.000Z,18.8
2022-12-03T14:15:49.000Z,18.8
2022-12-03T14:16:59.000Z,18.8
2022-12-03T14:18:09.000Z,18.8
2022-12-03T14:19:19.000Z,18.8
2022-12-03T14:20:29.000Z,18.8
2022-12-03T14:21:39.000Z,18.8
2022-12-03T14:22:49.000Z,18.8
2022-12-03T14:23:59.000Z,18.8
2022-12-03T14:25:09.000Z,18.8
2022-12-03T14:26:19.000Z,18.8
2022-12-03T14:27:29.793Z,18.8
2022-12-03T14:28:38.000Z,18.8
2022-12-03T14:29:48.000Z,18.8
2022-12-03T14:30:58.000Z,18.8
2022-12-03T14:32:07.000Z,18.8
2022-12-03T14:33:16.000Z,18.8
2022-12-03T14:34:26.580Z,18.8
2022-12-03T14:35:36.000Z,18.8
2022-12-03T14:36:46.000Z,18.8
2022-12-03T14:37:56.000Z,18.8
2022-12-03T14:39:07.000Z,18.8
2022-12-03T14:40:17.000Z,18.8
2022-12-03T14:41:27.000Z,18.8
2022-12-03T14:42:37.000Z,18.8
2022-12-03T14:43:47.000Z,18.8
2022-12-03T14:44:57.000Z,18.8
2022-12-03T14:46:07.753Z,18.8
2022-12-03T14:47:17.000Z,18.8
2022-12-03T14:48:27.008Z,18.8
2022-12-03T14:49:37.000Z,18.8
2022-12-03T14:50:47.000Z,18.8
2022-12-03T14:51:57.000Z,18.8
2022-12-03T14:53:07.000Z,18.8
2022-12-03T14:54:17.000Z,18.8
2022-12-03T14:55:27.000Z,18.8
2022-12-03T14:56:36.000Z,18.8
2022-12-03T14:57:45.000Z,18.8
2022-12-03T14:58:56.000Z,18.8
2022-12-03T15:00:05.000Z,18.8
2022-12-03T15:01:15.000Z,18.8
2022-12-03T15:02:24.000Z,18.7
2022-12-03T15:03:34.000Z,18.7
2022-12-03T15:04:44.000Z,18.7
2022-12-03T15:05:54.863Z,18.8
2022-12-03T15:07:04.000Z,18.7
2022-12-03T15:08:15.087Z,18.7
2022-12-03T15:09:25.000Z,18.7
2022-12-03T15:10:35.320Z,18.7
2022-12-03T15:11:45.000Z,18.7
2022-12-03T15:12:55.000Z,18.7
2022-12-03T15:14:05.000Z,18.7
2022-12-03T15:15:15.000Z,18.7
2022-12-03T15:16:25.000Z,18.7
2022-12-03T15:17:35.045Z,18.7
2022-12-03T15:18:45.000Z,18.7
2022-12-03T15:19:55.000Z,18.7
2022-12-03T15:21:05.000Z,18.7
2022-12-03T15:22:15.000Z,18.7
2022-12-03T15:23:25.632Z,18.7
2022-12-03T15:24:34.000Z,18.7
2022-12-03T15:25:43.000Z,18.7
2022-12-03T15:26:54.000Z,18.7
2022-12-03T15:28:04.149Z,18.7
2022-12-03T15:29:13.287Z,18.7
2022-12-03T15:30:22.000Z,18.7
2022-12-03T15:31:32.000Z,18.7
2022-12-03T15:32:42.000Z,18.7
2022-12-03T15:33:52.000Z,18.7
2022-12-03T15:35:02.897Z,18.7
2022-12-03T15:36:13.000Z,18.7
2022-12-03T15:37:23.127Z,18.7
2022-12-03T15:38:33.000Z,18.7
2022-12-03T15:39:43.000Z,18.7
2022-12-03T15:40:53.000Z,18.7